KAAA

Logan County Airport

Lincoln, Illinois, USA
METAR KAAA 152055Z AUTO 33003KT 10SM BKN025 BKN032 OVC048 30/24 A2996 RMK AO2 T02970240
Observed Flight Rules
Jul-15 @ 20:55 UTC (6 minutes ago) Marginal Visual Flight Rules
Wind Visibility Clouds
330° at 3 knots 10 miles
  • Broken at 2,500' AGL
  • Broken at 3,200' AGL
  • Overcast at 4,800' AGL
Temperatures Readings
Current 30°C / 86°F
Dewpoint 24°C / 75°F
Humidity 70%
Altimeter 29.96" Hg
Pressure 1015 hPa
Elevation 182
METAR KAAA 152055Z AUTO 33003KT 10SM BKN025 BKN032 OVC048 30/24 A2996 RMK AO2 T02970240
Observed Flight Rules
Jul-15 @ 20:55 UTC
(6 minutes ago)
MVFR
Wind Visibility
330° at 3 knots 10 miles
Clouds
  • Broken at 2,500' AGL
  • Broken at 3,200' AGL
  • Overcast at 4,800' AGL
Temperature Dewpoint
30°C / 86°F 24°C / 75°F
Humidity Altimeter Pressure
70% 29.96" Hg 1015 hPa